Time,TemperatureF,DewpointF,PressureIn,WindDirection,WindDirectionDegrees,WindSpeedMPH,WindSpeedGustMPH,Humidity,HourlyPrecipIn,Conditions,Clouds,dailyrainin,SoftwareType,DateUTC
2013-03-30 00:00:00,44.8,36.0,30.40,NW,315,0.0,0.0,71,0.00,,,0.00,VWS V14.01,2013-03-30 04:00:00,
2013-03-30 00:30:00,44.3,35.9,30.39,NW,315,0.0,0.0,72,0.00,,,0.00,VWS V14.01,2013-03-30 04:30:00,
2013-03-30 01:00:00,43.8,35.7,30.39,NW,315,0.0,0.0,73,0.00,,,0.00,VWS V14.01,2013-03-30 05:00:00,
2013-03-30 01:30:00,43.5,36.1,30.38,NW,315,0.0,0.0,75,0.00,,,0.00,VWS V14.01,2013-03-30 05:30:00,
2013-03-30 02:00:00,42.8,35.4,30.38,NW,315,0.0,0.0,75,0.00,,,0.00,VWS V14.01,2013-03-30 06:00:00,
2013-03-30 02:30:00,41.2,34.2,30.37,NW,315,0.0,0.0,76,0.00,,,0.00,VWS V14.01,2013-03-30 06:30:00,
2013-03-30 03:00:00,39.5,33.5,30.37,NW,315,0.0,0.0,79,0.00,,,0.00,VWS V14.01,2013-03-30 07:00:00,
2013-03-30 03:30:00,37.6,32.6,30.39,NW,315,0.0,0.0,82,0.00,,,0.00,VWS V14.01,2013-03-30 07:30:00,
2013-03-30 04:00:00,37.2,33.1,30.38,NW,315,0.0,0.0,85,0.00,,,0.00,VWS V14.01,2013-03-30 08:00:00,
2013-03-30 04:30:00,37.8,34.6,30.37,NW,315,0.0,0.0,88,0.00,,,0.00,VWS V14.01,2013-03-30 08:30:00,
2013-03-30 05:00:00,38.1,34.6,30.37,NW,315,0.0,0.0,87,0.00,,,0.00,VWS V14.01,2013-03-30 09:00:00,
2013-03-30 05:30:00,37.8,34.3,30.38,NW,315,0.0,0.0,87,0.00,,,0.00,VWS V14.01,2013-03-30 09:30:00,
2013-03-30 06:00:00,37.4,34.2,30.39,NW,315,0.0,0.0,88,0.00,,,0.00,VWS V14.01,2013-03-30 10:00:00,
2013-03-30 06:30:00,36.9,33.7,30.39,NW,315,0.0,0.0,88,0.00,,,0.00,VWS V14.01,2013-03-30 10:30:00,
2013-03-30 07:30:00,35.6,32.7,30.41,NW,315,0.0,0.0,89,0.00,,,0.00,VWS V14.01,2013-03-30 11:30:00,
2013-03-30 08:00:00,35.8,33.2,30.42,NW,315,0.0,0.0,90,0.00,,,0.00,VWS V14.01,2013-03-30 12:00:00,
2013-03-30 08:30:00,40.7,37.4,30.42,NW,315,0.0,0.0,88,0.00,,,0.00,VWS V14.01,2013-03-30 12:30:00,
2013-03-30 09:00:00,46.6,34.3,30.42,NNE,22,0.0,5.0,62,0.00,,,0.00,VWS V14.01,2013-03-30 13:00:00,
2013-03-30 09:30:00,50.8,33.8,30.42,ENE,68,0.0,4.0,52,0.00,,,0.00,VWS V14.01,2013-03-30 13:30:00,
2013-03-30 10:00:00,53.1,34.5,30.42,East,90,0.0,4.0,49,0.00,,,0.00,VWS V14.01,2013-03-30 14:00:00,
2013-03-30 10:30:00,56.1,36.2,30.41,NE,45,0.0,9.0,47,0.00,,,0.00,VWS V14.01,2013-03-30 14:30:00,
2013-03-30 11:00:00,58.0,33.8,30.41,ENE,68,1.0,7.0,40,0.00,,,0.00,VWS V14.01,2013-03-30 15:00:00,
2013-03-30 11:30:00,58.8,33.9,30.40,NE,45,1.0,7.0,39,0.00,,,0.00,VWS V14.01,2013-03-30 15:30:00,
2013-03-30 13:00:00,61.0,37.2,30.35,SW,225,1.0,7.0,41,0.00,,,0.00,VWS V14.01,2013-03-30 17:00:00,
2013-03-30 13:30:00,62.3,37.7,30.34,NE,45,2.0,11.0,40,0.00,,,0.00,VWS V14.01,2013-03-30 17:30:00,
2013-03-30 14:00:00,62.7,35.4,30.32,NNE,22,1.0,6.0,36,0.00,,,0.00,VWS V14.01,2013-03-30 18:00:00,
2013-03-30 14:30:00,63.5,36.8,30.31,SW,225,1.0,9.0,37,0.00,,,0.00,VWS V14.01,2013-03-30 18:30:00,
2013-03-30 15:00:00,64.3,41.3,30.30,NNW,338,0.0,6.0,43,0.00,,,0.00,VWS V14.01,2013-03-30 19:00:00,
2013-03-30 15:30:00,66.0,39.0,30.28,SW,225,1.0,10.0,37,0.00,,,0.00,VWS V14.01,2013-03-30 19:30:00,
2013-03-30 16:00:00,66.0,41.0,30.28,SSW,202,1.0,7.0,40,0.00,,,0.00,VWS V14.01,2013-03-30 20:00:00,
2013-03-30 16:30:00,66.3,43.8,30.27,NW,315,1.0,8.0,44,0.00,,,0.00,VWS V14.01,2013-03-30 20:30:00,
2013-03-30 17:00:00,65.6,41.3,30.26,WSW,248,1.0,9.0,41,0.00,,,0.00,VWS V14.01,2013-03-30 21:00:00,
2013-03-30 17:30:00,64.0,38.6,30.25,SW,225,1.0,8.0,39,0.00,,,0.00,VWS V14.01,2013-03-30 21:30:00,
2013-03-30 18:00:00,63.0,40.8,30.26,SW,225,0.0,5.0,44,0.00,,,0.00,VWS V14.01,2013-03-30 22:00:00,
2013-03-30 18:30:00,62.1,42.2,30.26,SSW,202,0.0,1.0,48,0.00,,,0.00,VWS V14.01,2013-03-30 22:30:00,
2013-03-30 19:30:00,59.7,42.1,30.26,SSW,202,0.0,1.0,52,0.00,,,0.00,VWS V14.01,2013-03-30 23:30:00,
2013-03-30 20:00:00,57.3,40.8,30.27,SSW,202,0.0,0.0,54,0.00,,,0.00,VWS V14.01,2013-03-31 00:00:00,
2013-03-30 20:30:00,54.6,39.2,30.27,SSW,202,0.0,0.0,56,0.00,,,0.00,VWS V14.01,2013-03-31 00:30:00,
2013-03-30 21:00:00,52.4,40.2,30.27,SSW,202,0.0,0.0,63,0.00,,,0.00,VWS V14.01,2013-03-31 01:00:00,
2013-03-30 21:30:00,50.6,40.1,30.27,SSW,202,0.0,0.0,67,0.00,,,0.00,VWS V14.01,2013-03-31 01:30:00,
2013-03-30 22:00:00,49.2,40.6,30.27,SSW,202,0.0,0.0,72,0.00,,,0.00,VWS V14.01,2013-03-31 02:00:00,
2013-03-30 22:30:00,47.9,40.7,30.27,SSW,202,0.0,0.0,76,0.00,,,0.00,VWS V14.01,2013-03-31 02:30:00,
2013-03-30 23:00:00,46.8,40.3,30.27,SSW,202,0.0,0.0,78,0.00,,,0.00,VWS V14.01,2013-03-31 03:00:00,
2013-03-30 23:30:00,45.7,39.9,30.27,SSW,202,0.0,0.0,80,0.00,,,0.00,VWS V14.01,2013-03-31 03:30:00,